createdAt,value
2023-06-30T00:01:36.192Z,1.50
2023-06-30T00:04:03.691Z,1.13
2023-06-30T00:06:31.037Z,1.10
2023-06-30T00:08:58.636Z,1.50
2023-06-30T00:11:25.928Z,1.48
2023-06-30T00:13:53.677Z,1.30
2023-06-30T00:16:22.162Z,1.25
2023-06-30T00:18:49.452Z,1.35
2023-06-30T00:21:17.080Z,1.30
2023-06-30T00:23:44.462Z,1.10
2023-06-30T00:26:11.667Z,1.02
2023-06-30T00:28:38.857Z,1.45
2023-06-30T00:31:06.087Z,1.42
2023-06-30T00:33:33.285Z,1.83
2023-06-30T00:36:00.677Z,1.48
2023-06-30T00:38:27.868Z,1.60
2023-06-30T00:40:55.066Z,1.40
2023-06-30T00:43:22.192Z,1.30
2023-06-30T00:45:49.396Z,1.20
2023-06-30T00:48:18.530Z,1.30
2023-06-30T00:50:45.895Z,2.65
2023-06-30T00:53:14.308Z,1.10
2023-06-30T00:55:47.915Z,1.30
2023-06-30T00:58:15.320Z,1.10
2023-06-30T01:00:42.553Z,1.08
2023-06-30T01:03:28.886Z,1.20
2023-06-30T01:05:58.650Z,1.42
2023-06-30T01:08:32.671Z,1.35
2023-06-30T01:11:00.034Z,1.27
2023-06-30T01:13:27.328Z,1.30
2023-06-30T01:15:55.904Z,1.52
2023-06-30T01:18:23.872Z,1.20
2023-06-30T01:20:51.948Z,0.80
2023-06-30T01:23:28.398Z,1.42
2023-06-30T01:25:55.958Z,1.40
2023-06-30T01:28:23.293Z,1.20
2023-06-30T01:30:51.344Z,1.10
2023-06-30T01:33:18.720Z,1.30
2023-06-30T01:35:46.149Z,1.52
2023-06-30T01:38:16.371Z,1.27
2023-06-30T01:40:43.601Z,1.33
2023-06-30T01:43:10.840Z,1.40
2023-06-30T01:45:38.144Z,1.30
2023-06-30T01:48:05.648Z,1.42
2023-06-30T01:50:34.246Z,1.30
2023-06-30T01:53:01.676Z,1.20
2023-06-30T01:55:28.882Z,1.40
2023-06-30T01:57:56.105Z,1.35
2023-06-30T02:00:23.316Z,1.45
2023-06-30T02:02:50.760Z,1.30
2023-06-30T02:05:19.277Z,1.73
2023-06-30T02:07:46.525Z,1.35
2023-06-30T02:10:14.205Z,1.42
2023-06-30T02:12:41.354Z,1.55
2023-06-30T02:15:10.110Z,1.02
2023-06-30T02:22:35.116Z,1.50
2023-06-30T02:25:02.294Z,1.73
2023-06-30T02:27:31.168Z,1.55
2023-06-30T02:30:06.153Z,1.27
2023-06-30T02:32:34.251Z,1.23
2023-06-30T02:35:01.668Z,1.27
2023-06-30T02:37:28.855Z,1.15
2023-06-30T02:39:55.995Z,1.17
2023-06-30T02:42:23.182Z,1.45
2023-06-30T02:44:50.328Z,1.30
2023-06-30T02:47:20.246Z,1.13
2023-06-30T02:49:47.415Z,1.50
2023-06-30T02:52:14.656Z,1.10
2023-06-30T02:54:41.831Z,1.15
2023-06-30T02:57:08.979Z,1.17
2023-06-30T02:59:36.133Z,1.38
2023-06-30T03:02:04.117Z,1.17
2023-06-30T03:04:32.724Z,1.20
2023-06-30T03:06:59.944Z,1.30
2023-06-30T03:09:27.212Z,1.90
2023-06-30T03:11:54.405Z,1.40
2023-06-30T03:14:21.674Z,1.45
2023-06-30T03:16:48.871Z,1.40
2023-06-30T03:19:17.431Z,1.50
2023-06-30T03:21:44.683Z,1.10
2023-06-30T03:24:11.856Z,1.27
2023-06-30T03:26:39.042Z,1.23
2023-06-30T03:29:06.210Z,1.40
2023-06-30T03:31:33.577Z,1.25
2023-06-30T03:34:01.128Z,1.02
2023-06-30T03:36:28.269Z,1.30
2023-06-30T03:38:55.572Z,1.40
2023-06-30T03:41:22.779Z,1.30
2023-06-30T03:43:49.973Z,1.30
2023-06-30T03:46:17.172Z,1.60
2023-06-30T03:48:44.477Z,1.60
2023-06-30T03:51:11.688Z,1.20
2023-06-30T03:53:38.887Z,1.40
2023-06-30T03:56:06.247Z,1.35
2023-06-30T03:58:33.497Z,1.15
2023-06-30T04:01:00.892Z,1.23
2023-06-30T04:03:28.564Z,1.20
2023-06-30T04:05:55.973Z,1.40
2023-06-30T04:08:23.287Z,1.20
2023-06-30T04:10:50.599Z,1.25
2023-06-30T04:13:17.821Z,1.40
2023-06-30T04:15:45.250Z,1.00
2023-06-30T04:18:12.821Z,1.27
2023-06-30T04:20:40.070Z,1.30
2023-06-30T04:23:07.429Z,1.20
2023-06-30T04:25:34.640Z,1.58
2023-06-30T04:28:01.857Z,1.20
2023-06-30T04:30:29.095Z,1.75
2023-06-30T04:32:56.374Z,1.08
2023-06-30T04:35:26.457Z,1.20
2023-06-30T04:37:54.130Z,1.25
2023-06-30T04:40:21.569Z,1.30
2023-06-30T04:42:48.843Z,1.20
2023-06-30T04:45:17.220Z,1.42
2023-06-30T04:47:46.306Z,1.65
2023-06-30T04:50:13.574Z,1.20
2023-06-30T04:52:40.813Z,1.20
2023-06-30T04:55:08.122Z,1.13
2023-06-30T04:57:35.249Z,1.40
2023-06-30T05:00:03.027Z,1.30
2023-06-30T05:02:51.482Z,1.67
2023-06-30T05:05:18.868Z,1.42
2023-06-30T05:07:46.877Z,1.45
2023-06-30T05:10:14.105Z,1.30
2023-06-30T05:12:41.260Z,1.50
2023-06-30T05:15:09.126Z,1.70
2023-06-30T05:17:36.479Z,1.40
2023-06-30T05:20:06.400Z,1.88
2023-06-30T05:22:33.863Z,1.60
2023-06-30T05:25:01.239Z,1.48
2023-06-30T05:27:28.464Z,1.10
2023-06-30T05:29:55.593Z,1.27
2023-06-30T05:32:23.822Z,1.48
2023-06-30T05:34:51.615Z,1.67
2023-06-30T05:37:18.792Z,1.55
2023-06-30T05:39:45.973Z,1.10
2023-06-30T05:42:13.161Z,1.27
2023-06-30T05:44:40.411Z,1.30
2023-06-30T05:47:07.857Z,1.10
2023-06-30T05:49:35.031Z,1.55
2023-06-30T05:52:02.259Z,1.90
2023-06-30T05:54:29.685Z,1.10
2023-06-30T05:56:56.897Z,1.13
2023-06-30T05:59:24.157Z,1.27
2023-06-30T06:01:53.061Z,1.50
2023-06-30T06:04:21.214Z,1.30
2023-06-30T06:06:48.510Z,1.50
2023-06-30T06:09:15.826Z,1.30
2023-06-30T06:11:44.520Z,1.50
2023-06-30T06:16:39.048Z,1.30
2023-06-30T06:19:06.336Z,1.20
2023-06-30T06:21:33.577Z,1.40
2023-06-30T06:24:00.781Z,1.35
2023-06-30T06:26:28.062Z,1.05
2023-06-30T06:28:55.328Z,1.50
2023-06-30T06:31:25.762Z,1.30
2023-06-30T06:33:55.753Z,1.20
2023-06-30T06:36:23.290Z,1.02
2023-06-30T06:38:50.481Z,1.13
2023-06-30T06:41:19.455Z,1.20
2023-06-30T06:43:46.593Z,1.35
2023-06-30T06:46:13.810Z,1.00
2023-06-30T06:48:41.055Z,1.30
2023-06-30T06:51:08.582Z,1.13
2023-06-30T06:53:36.436Z,1.10
2023-06-30T06:56:04.474Z,1.30
2023-06-30T06:58:32.497Z,1.17
2023-06-30T07:01:00.037Z,1.30
2023-06-30T07:03:27.375Z,0.82
2023-06-30T07:05:56.370Z,1.50
2023-06-30T07:08:23.625Z,1.23
2023-06-30T07:10:51.603Z,0.93
2023-06-30T07:13:19.941Z,1.05
2023-06-30T07:15:51.644Z,0.90
2023-06-30T07:18:20.228Z,1.17
2023-06-30T07:20:48.350Z,0.95
2023-06-30T07:23:15.749Z,1.10
2023-06-30T07:25:43.315Z,1.08
2023-06-30T07:28:10.620Z,1.10
2023-06-30T07:30:37.932Z,1.00
2023-06-30T07:33:05.201Z,0.80
2023-06-30T07:35:32.427Z,1.10
2023-06-30T07:37:59.570Z,1.00
2023-06-30T07:40:28.235Z,1.10
2023-06-30T07:42:57.481Z,1.42
2023-06-30T07:45:24.681Z,0.77
2023-06-30T07:47:51.929Z,0.90
2023-06-30T07:50:19.305Z,0.98
2023-06-30T07:52:49.195Z,1.00
2023-06-30T07:55:17.489Z,1.00
2023-06-30T07:57:45.309Z,0.75
2023-06-30T08:00:19.896Z,0.93
2023-06-30T08:02:47.832Z,0.90
2023-06-30T08:05:15.775Z,0.82
2023-06-30T08:07:50.495Z,0.95
2023-06-30T08:10:19.116Z,1.45
2023-06-30T08:12:46.465Z,1.00
2023-06-30T08:15:13.684Z,0.90
2023-06-30T08:17:51.306Z,1.02
2023-06-30T08:20:23.145Z,0.73
2023-06-30T08:22:50.404Z,0.90
2023-06-30T08:25:17.733Z,0.85
2023-06-30T08:27:44.918Z,0.77
2023-06-30T08:30:12.247Z,0.80
2023-06-30T08:32:39.524Z,1.00
2023-06-30T08:35:06.968Z,0.93
2023-06-30T08:37:34.280Z,0.70
2023-06-30T08:40:04.344Z,0.80
2023-06-30T08:42:32.724Z,0.73
2023-06-30T08:44:59.920Z,1.00
2023-06-30T08:47:29.649Z,0.85
2023-06-30T08:49:57.452Z,1.00
2023-06-30T08:52:24.683Z,0.85
2023-06-30T08:54:52.030Z,0.93
2023-06-30T08:57:19.550Z,1.05
2023-06-30T08:59:46.962Z,0.95
2023-06-30T09:02:14.199Z,0.82
2023-06-30T09:04:41.875Z,1.15
2023-06-30T09:07:14.826Z,0.88
2023-06-30T09:09:46.891Z,1.00
2023-06-30T09:12:14.849Z,0.82
2023-06-30T09:14:42.644Z,1.00
2023-06-30T09:17:09.889Z,0.80
2023-06-30T09:19:37.242Z,1.00
2023-06-30T09:22:52.030Z,1.00
2023-06-30T09:24:54.068Z,1.10
2023-06-30T09:27:21.464Z,1.20
2023-06-30T09:29:57.824Z,1.00
2023-06-30T09:32:32.583Z,1.00
2023-06-30T09:35:08.762Z,1.00
2023-06-30T09:37:45.725Z,0.63
2023-06-30T09:40:14.212Z,0.85
2023-06-30T09:42:42.381Z,1.02
2023-06-30T09:45:09.766Z,1.17
2023-06-30T09:47:37.051Z,1.20
2023-06-30T09:50:05.855Z,1.35
2023-06-30T09:52:37.471Z,1.02
2023-06-30T09:55:10.098Z,1.27
2023-06-30T09:57:44.959Z,1.00
2023-06-30T10:00:33.757Z,1.20
2023-06-30T10:03:06.856Z,1.02
2023-06-30T10:05:34.167Z,0.80
2023-06-30T10:08:01.769Z,1.00
2023-06-30T10:10:29.830Z,0.90
2023-06-30T10:12:58.046Z,1.15
2023-06-30T10:15:25.383Z,1.30
2023-06-30T10:17:53.510Z,1.20
2023-06-30T10:20:25.491Z,1.42
2023-06-30T10:23:01.654Z,1.17
2023-06-30T10:25:29.582Z,1.35
2023-06-30T10:27:57.006Z,1.70
2023-06-30T10:30:24.682Z,1.27
2023-06-30T10:32:51.894Z,1.30
2023-06-30T10:35:19.994Z,1.42
2023-06-30T10:37:47.458Z,1.23
2023-06-30T10:40:30.526Z,1.30
2023-06-30T10:42:58.524Z,1.10
2023-06-30T10:45:29.555Z,1.20
2023-06-30T10:47:56.830Z,1.13
2023-06-30T10:50:24.779Z,0.90
2023-06-30T10:52:52.688Z,0.98
2023-06-30T10:55:23.881Z,1.10
2023-06-30T10:57:52.318Z,1.02
2023-06-30T11:00:20.494Z,1.00
2023-06-30T11:02:49.646Z,1.15
2023-06-30T11:05:27.489Z,1.13
2023-06-30T11:07:55.876Z,1.00
2023-06-30T11:10:36.723Z,0.82
2023-06-30T11:13:05.047Z,1.02
2023-06-30T11:15:36.237Z,1.52
2023-06-30T11:18:10.032Z,0.98
2023-06-30T11:20:37.856Z,1.35
2023-06-30T11:23:17.031Z,1.30
2023-06-30T11:25:44.225Z,1.35
2023-06-30T11:28:13.265Z,1.50
2023-06-30T11:30:40.901Z,1.52
2023-06-30T11:33:08.672Z,1.67
2023-06-30T11:35:36.849Z,1.40
2023-06-30T11:38:04.596Z,1.50
2023-06-30T11:40:31.800Z,1.13
2023-06-30T11:42:58.971Z,1.80
2023-06-30T11:45:28.939Z,1.52
2023-06-30T11:47:57.239Z,1.52
2023-06-30T11:50:26.408Z,1.30
2023-06-30T11:52:53.750Z,1.40
2023-06-30T11:55:21.354Z,1.70
2023-06-30T11:57:48.758Z,1.45
2023-06-30T12:00:21.147Z,1.48
2023-06-30T12:02:52.891Z,1.42
2023-06-30T12:05:25.101Z,1.40
2023-06-30T12:07:55.222Z,1.17
2023-06-30T12:10:37.821Z,1.70
2023-06-30T12:13:07.221Z,1.42
2023-06-30T12:15:34.539Z,1.52
2023-06-30T12:18:05.558Z,1.05
2023-06-30T12:20:37.601Z,1.48
2023-06-30T12:23:08.659Z,1.35
2023-06-30T12:25:37.313Z,1.23
2023-06-30T12:32:59.684Z,1.10
2023-06-30T12:35:34.039Z,1.30
2023-06-30T12:38:01.769Z,1.63
2023-06-30T12:40:32.533Z,1.55
2023-06-30T12:42:59.870Z,1.02
2023-06-30T12:45:27.124Z,1.52
2023-06-30T12:47:54.554Z,1.60
2023-06-30T12:50:21.806Z,1.23
2023-06-30T12:52:49.239Z,1.30
2023-06-30T12:55:16.609Z,1.58
2023-06-30T12:57:43.853Z,1.45
2023-06-30T13:00:11.390Z,1.45
2023-06-30T13:02:39.053Z,1.25
2023-06-30T13:05:07.612Z,1.25
2023-06-30T13:07:35.407Z,1.30
2023-06-30T13:10:06.144Z,1.70
2023-06-30T13:12:33.434Z,1.55
2023-06-30T13:15:01.176Z,1.92
2023-06-30T13:17:28.397Z,1.35
2023-06-30T13:19:55.565Z,1.33
2023-06-30T13:22:22.701Z,1.33
2023-06-30T13:24:50.849Z,1.60
2023-06-30T13:27:18.189Z,2.10
2023-06-30T13:29:48.397Z,1.38
2023-06-30T13:32:15.873Z,1.27
2023-06-30T13:34:43.132Z,1.25
2023-06-30T13:37:10.344Z,1.30
2023-06-30T13:39:37.884Z,1.38
2023-06-30T13:42:05.889Z,1.60
2023-06-30T13:44:33.290Z,1.77
2023-06-30T13:47:00.560Z,1.13
2023-06-30T13:49:27.728Z,1.50
2023-06-30T13:51:55.440Z,1.40
2023-06-30T13:54:25.719Z,1.50
2023-06-30T13:56:53.956Z,1.55
2023-06-30T13:59:21.733Z,1.58
2023-06-30T14:01:49.009Z,1.30
2023-06-30T14:04:16.363Z,1.65
2023-06-30T14:06:43.666Z,1.20
2023-06-30T14:09:12.067Z,1.58
2023-06-30T14:11:39.892Z,1.42
2023-06-30T14:14:07.250Z,1.30
2023-06-30T14:16:36.110Z,1.50
2023-06-30T14:19:04.778Z,1.23
2023-06-30T14:21:32.488Z,1.20
2023-06-30T14:24:00.135Z,1.55
2023-06-30T14:26:27.391Z,1.35
2023-06-30T14:28:54.922Z,1.40
2023-06-30T14:31:22.282Z,1.80
2023-06-30T14:33:49.748Z,1.60
2023-06-30T14:36:16.900Z,1.45
2023-06-30T14:38:44.598Z,1.55
2023-06-30T14:41:13.845Z,1.30
2023-06-30T14:43:41.012Z,1.45
2023-06-30T14:46:08.353Z,1.75
2023-06-30T14:48:35.635Z,1.60
2023-06-30T14:51:02.863Z,1.75
2023-06-30T14:53:30.132Z,1.30
2023-06-30T14:55:58.237Z,1.52
2023-06-30T14:58:25.430Z,1.60
2023-06-30T15:00:52.703Z,1.60
2023-06-30T15:03:19.908Z,1.52
2023-06-30T15:05:47.474Z,1.92
2023-06-30T15:08:14.906Z,1.60
2023-06-30T15:10:42.130Z,7.32
2023-06-30T15:13:09.440Z,12.43
2023-06-30T15:15:36.732Z,32.83
2023-06-30T15:18:03.992Z,21.23
2023-06-30T15:20:31.253Z,17.75
2023-06-30T15:22:58.923Z,21.02
2023-06-30T15:25:27.480Z,69.78
2023-06-30T15:27:55.510Z,63.42
2023-06-30T15:30:23.025Z,40.83
2023-06-30T15:32:50.874Z,39.00
2023-06-30T15:35:18.980Z,27.85
2023-06-30T15:37:46.406Z,23.35
2023-06-30T15:40:14.587Z,23.17
2023-06-30T15:42:41.778Z,23.40
2023-06-30T15:45:13.179Z,23.75
2023-06-30T15:47:40.499Z,24.25
2023-06-30T15:50:08.147Z,25.65
2023-06-30T15:52:35.313Z,28.15
2023-06-30T15:55:09.742Z,27.80
2023-06-30T15:57:37.309Z,31.58
2023-06-30T16:00:05.581Z,34.22
2023-06-30T16:02:32.851Z,34.05
2023-06-30T16:05:00.596Z,33.15
2023-06-30T16:07:27.946Z,32.42
2023-06-30T16:09:55.694Z,35.75
2023-06-30T16:12:22.891Z,31.85
2023-06-30T16:14:50.081Z,28.23
2023-06-30T16:17:17.438Z,27.67
2023-06-30T16:19:44.669Z,25.23
2023-06-30T16:22:11.902Z,25.35
2023-06-30T16:24:41.989Z,27.20
2023-06-30T16:27:14.793Z,23.70
2023-06-30T16:29:42.163Z,23.67
2023-06-30T16:32:09.523Z,21.80
2023-06-30T16:34:45.417Z,22.92
2023-06-30T16:37:12.725Z,20.55
2023-06-30T16:39:39.977Z,19.67
2023-06-30T16:42:07.413Z,16.77
2023-06-30T16:44:34.987Z,16.20
2023-06-30T16:47:02.193Z,14.80
2023-06-30T16:49:32.783Z,15.98
2023-06-30T16:51:59.994Z,11.98
2023-06-30T16:54:27.217Z,12.10
2023-06-30T16:56:54.373Z,11.48
2023-06-30T16:59:21.620Z,11.32
2023-06-30T17:01:55.688Z,11.20
2023-06-30T17:09:20.359Z,10.70
2023-06-30T17:11:47.806Z,10.18
2023-06-30T17:14:14.979Z,9.73
2023-06-30T17:16:42.358Z,8.32
2023-06-30T17:19:09.636Z,8.00
2023-06-30T17:21:40.045Z,7.78
2023-06-30T17:24:08.332Z,27.55
2023-06-30T17:26:35.681Z,9.52
2023-06-30T17:29:02.893Z,8.63
2023-06-30T17:31:31.607Z,10.07
2023-06-30T17:33:58.873Z,10.55
2023-06-30T17:36:26.041Z,9.90
2023-06-30T17:38:55.070Z,12.55
2023-06-30T17:41:22.398Z,9.80
2023-06-30T17:43:50.668Z,9.30
2023-06-30T17:46:18.050Z,10.68
2023-06-30T17:48:45.237Z,10.52
2023-06-30T17:51:13.704Z,11.32
2023-06-30T17:53:40.971Z,11.23
2023-06-30T17:56:08.205Z,10.18
2023-06-30T17:58:35.369Z,9.15
2023-06-30T18:01:02.827Z,9.07
2023-06-30T18:03:30.033Z,8.63
2023-06-30T18:05:58.675Z,8.00
2023-06-30T18:08:25.876Z,8.13
2023-06-30T18:11:08.149Z,7.35
2023-06-30T18:13:39.318Z,7.00
2023-06-30T18:16:06.762Z,6.60
2023-06-30T18:18:33.953Z,5.18
2023-06-30T18:21:01.105Z,4.82
2023-06-30T18:23:28.286Z,4.30
2023-06-30T18:25:55.854Z,3.95
2023-06-30T18:28:23.267Z,3.72
2023-06-30T18:30:50.468Z,3.05
2023-06-30T18:33:17.714Z,2.65
2023-06-30T18:35:45.165Z,2.53
2023-06-30T18:38:12.507Z,2.50
2023-06-30T18:40:39.697Z,2.42
2023-06-30T18:43:07.544Z,2.13
2023-06-30T18:45:36.551Z,1.80
2023-06-30T18:48:03.862Z,1.98
2023-06-30T18:50:31.070Z,1.65
2023-06-30T18:52:58.308Z,1.63
2023-06-30T18:55:25.468Z,1.30
2023-06-30T18:57:52.676Z,1.08
2023-06-30T19:00:19.926Z,1.02
2023-06-30T19:02:47.234Z,1.33
2023-06-30T19:05:14.579Z,0.85
2023-06-30T19:07:41.933Z,1.20
2023-06-30T19:10:10.539Z,0.90
2023-06-30T19:12:37.747Z,0.90
2023-06-30T19:15:05.128Z,0.80
2023-06-30T19:17:34.640Z,0.80
2023-06-30T19:20:02.346Z,0.88
2023-06-30T19:22:29.674Z,0.82
2023-06-30T19:24:56.846Z,0.60
2023-06-30T19:27:24.050Z,0.80
2023-06-30T19:29:51.304Z,0.77
2023-06-30T19:32:18.539Z,0.60
2023-06-30T19:34:45.910Z,0.95
2023-06-30T19:37:13.555Z,0.68
2023-06-30T19:39:42.654Z,0.50
2023-06-30T19:42:09.818Z,0.80
2023-06-30T19:44:37.075Z,0.75
2023-06-30T19:47:04.321Z,0.65
2023-06-30T19:49:31.819Z,0.85
2023-06-30T19:51:59.379Z,0.90
2023-06-30T19:54:26.602Z,0.50
2023-06-30T19:56:54.407Z,0.75
2023-06-30T19:59:21.885Z,0.70
2023-06-30T20:01:49.945Z,0.90
2023-06-30T20:04:20.126Z,0.80
2023-06-30T20:06:47.335Z,0.45
2023-06-30T20:09:14.586Z,0.70
2023-06-30T20:11:43.861Z,0.50
2023-06-30T20:14:11.141Z,0.90
2023-06-30T20:16:38.436Z,0.50
2023-06-30T20:19:06.154Z,0.60
2023-06-30T20:21:33.368Z,0.60
2023-06-30T20:24:00.620Z,0.70
2023-06-30T20:26:27.848Z,0.60
2023-06-30T20:28:54.996Z,1.70
2023-06-30T20:31:22.251Z,0.70
2023-06-30T20:33:49.518Z,0.80
2023-06-30T20:36:16.784Z,0.65
2023-06-30T20:38:44.105Z,0.80
2023-06-30T20:41:11.349Z,0.73
2023-06-30T20:43:38.689Z,0.52
2023-06-30T20:46:05.927Z,0.60
2023-06-30T20:48:33.111Z,0.70
2023-06-30T20:51:00.319Z,0.73
2023-06-30T20:53:27.503Z,0.93
2023-06-30T20:56:00.537Z,0.82
2023-06-30T20:58:27.808Z,0.65
2023-06-30T21:00:55.138Z,0.82
2023-06-30T21:03:22.341Z,1.50
2023-06-30T21:05:49.633Z,1.23
2023-06-30T21:08:16.875Z,1.30
2023-06-30T21:10:44.345Z,1.33
2023-06-30T21:13:11.795Z,1.60
2023-06-30T21:15:38.978Z,1.52
2023-06-30T21:18:07.413Z,1.30
2023-06-30T21:20:34.826Z,1.13
2023-06-30T21:23:02.118Z,1.27
2023-06-30T21:25:29.290Z,1.50
2023-06-30T21:27:56.528Z,1.38
2023-06-30T21:30:23.773Z,1.65
2023-06-30T21:32:51.050Z,1.23
2023-06-30T21:35:18.483Z,1.38
2023-06-30T21:37:45.890Z,1.30
2023-06-30T21:40:14.240Z,1.30
2023-06-30T21:42:41.412Z,1.33
2023-06-30T21:45:08.870Z,0.98
2023-06-30T21:47:36.015Z,1.40
2023-06-30T21:50:03.978Z,1.20
2023-06-30T21:52:31.366Z,1.38
2023-06-30T21:54:58.801Z,1.05
2023-06-30T21:57:26.082Z,1.50
2023-06-30T21:59:53.492Z,1.42
2023-06-30T22:02:20.811Z,1.40
2023-06-30T22:04:48.147Z,1.40
2023-06-30T22:07:15.840Z,1.88
2023-06-30T22:09:43.097Z,1.63
2023-06-30T22:12:10.476Z,1.20
2023-06-30T22:14:37.892Z,1.40
2023-06-30T22:17:05.338Z,1.08
2023-06-30T22:19:34.350Z,1.55
2023-06-30T22:22:03.199Z,1.63
2023-06-30T22:24:30.386Z,1.60
2023-06-30T22:26:57.902Z,1.42
2023-06-30T22:29:25.141Z,1.30
2023-06-30T22:31:52.339Z,1.00
2023-06-30T22:34:19.697Z,1.40
2023-06-30T22:36:46.888Z,1.40
2023-06-30T22:39:14.144Z,1.33
2023-06-30T22:41:41.371Z,1.45
2023-06-30T22:44:08.549Z,1.50
2023-06-30T22:46:35.750Z,1.63
2023-06-30T22:49:04.651Z,1.50
2023-06-30T22:51:32.029Z,1.65
2023-06-30T22:53:59.229Z,1.27
2023-06-30T22:56:26.426Z,1.85
2023-06-30T22:58:53.638Z,1.45
2023-06-30T23:01:21.103Z,1.25
2023-06-30T23:03:48.303Z,1.75
2023-06-30T23:06:15.508Z,1.67
2023-06-30T23:08:42.836Z,1.25
2023-06-30T23:11:10.024Z,1.50
2023-06-30T23:13:37.306Z,1.60
2023-06-30T23:16:04.621Z,1.20
2023-06-30T23:18:38.857Z,1.55
2023-06-30T23:21:12.566Z,1.45
2023-06-30T23:23:43.151Z,1.40
2023-06-30T23:26:11.279Z,1.63
2023-06-30T23:28:39.348Z,1.48
2023-06-30T23:31:06.734Z,1.80
2023-06-30T23:33:33.981Z,1.42
2023-06-30T23:36:01.182Z,1.70
2023-06-30T23:38:28.802Z,1.63
2023-06-30T23:40:56.122Z,1.30
2023-06-30T23:43:23.276Z,1.58
2023-06-30T23:45:50.445Z,1.40
2023-06-30T23:48:17.604Z,1.65
2023-06-30T23:50:44.991Z,1.35
2023-06-30T23:53:12.486Z,1.88
2023-06-30T23:55:39.692Z,1.70
2023-06-30T23:58:06.952Z,1.50
